sensor_id;sensor_type;location;lat;lon;timestamp;temperature;humidity
17697;DHT22;8967;47.984;7.842;2022-12-18T00:02:15;-3.30;99.90
17697;DHT22;8967;47.984;7.842;2022-12-18T00:04:45;-3.40;99.90
17697;DHT22;8967;47.984;7.842;2022-12-18T00:07:12;-3.40;99.90
17697;DHT22;8967;47.984;7.842;2022-12-18T00:09:38;-3.50;99.90
17697;DHT22;8967;47.984;7.842;2022-12-18T00:12:06;-3.50;99.90
17697;DHT22;8967;47.984;7.842;2022-12-18T00:14:34;-3.60;99.90
17697;DHT22;8967;47.984;7.842;2022-12-18T00:17:02;-3.70;99.90
17697;DHT22;8967;47.984;7.842;2022-12-18T00:19:29;-3.80;99.90
17697;DHT22;8967;47.984;7.842;2022-12-18T00:21:56;-3.80;99.90
17697;DHT22;8967;47.984;7.842;2022-12-18T00:24:23;-3.90;99.90
17697;DHT22;8967;47.984;7.842;2022-12-18T00:26:50;-4.00;99.90
17697;DHT22;8967;47.984;7.842;2022-12-18T00:29:20;-4.00;99.90
17697;DHT22;8967;47.984;7.842;2022-12-18T00:31:49;-4.10;99.90
17697;DHT22;8967;47.984;7.842;2022-12-18T00:34:16;-4.10;99.90
17697;DHT22;8967;47.984;7.842;2022-12-18T00:36:43;-4.20;99.90
17697;DHT22;8967;47.984;7.842;2022-12-18T00:39:11;-4.20;99.90
17697;DHT22;8967;47.984;7.842;2022-12-18T00:41:38;-4.30;99.90
17697;DHT22;8967;47.984;7.842;2022-12-18T00:44:24;-4.30;99.90
17697;DHT22;8967;47.984;7.842;2022-12-18T00:46:53;-4.30;99.90
17697;DHT22;8967;47.984;7.842;2022-12-18T00:49:20;-4.30;99.90
17697;DHT22;8967;47.984;7.842;2022-12-18T00:51:50;-4.20;99.90
17697;DHT22;8967;47.984;7.842;2022-12-18T00:54:18;-4.30;99.90
17697;DHT22;8967;47.984;7.842;2022-12-18T00:56:47;-4.20;99.90
17697;DHT22;8967;47.984;7.842;2022-12-18T00:59:14;-4.20;99.90
17697;DHT22;8967;47.984;7.842;2022-12-18T01:01:41;-4.20;99.90
17697;DHT22;8967;47.984;7.842;2022-12-18T01:04:11;-4.20;99.90
17697;DHT22;8967;47.984;7.842;2022-12-18T01:06:38;-4.10;99.90
17697;DHT22;8967;47.984;7.842;2022-12-18T01:09:05;-4.10;99.90
17697;DHT22;8967;47.984;7.842;2022-12-18T01:11:35;-4.10;99.90
17697;DHT22;8967;47.984;7.842;2022-12-18T01:14:04;-4.10;99.90
17697;DHT22;8967;47.984;7.842;2022-12-18T01:16:31;-4.10;99.90
17697;DHT22;8967;47.984;7.842;2022-12-18T01:18:58;-4.10;99.90
17697;DHT22;8967;47.984;7.842;2022-12-18T01:21:28;-4.20;99.90
17697;DHT22;8967;47.984;7.842;2022-12-18T01:23:56;-4.20;99.90
17697;DHT22;8967;47.984;7.842;2022-12-18T01:26:24;-4.30;99.90
17697;DHT22;8967;47.984;7.842;2022-12-18T01:28:54;-4.40;99.90
17697;DHT22;8967;47.984;7.842;2022-12-18T01:31:25;-4.40;99.90
17697;DHT22;8967;47.984;7.842;2022-12-18T01:33:54;-4.40;99.90
17697;DHT22;8967;47.984;7.842;2022-12-18T01:36:23;-4.40;99.90
17697;DHT22;8967;47.984;7.842;2022-12-18T01:38:52;-4.50;99.90
17697;DHT22;8967;47.984;7.842;2022-12-18T01:41:21;-4.50;99.90
17697;DHT22;8967;47.984;7.842;2022-12-18T01:43:51;-4.50;99.90
17697;DHT22;8967;47.984;7.842;2022-12-18T01:46:22;-4.50;99.90
17697;DHT22;8967;47.984;7.842;2022-12-18T01:48:57;-4.50;99.90
17697;DHT22;8967;47.984;7.842;2022-12-18T01:51:27;-4.50;99.90
17697;DHT22;8967;47.984;7.842;2022-12-18T01:53:57;-4.50;99.90
17697;DHT22;8967;47.984;7.842;2022-12-18T01:56:24;-4.50;99.90
17697;DHT22;8967;47.984;7.842;2022-12-18T01:58:56;-4.40;99.90
17697;DHT22;8967;47.984;7.842;2022-12-18T02:01:25;-4.40;99.90
17697;DHT22;8967;47.984;7.842;2022-12-18T02:03:54;-4.40;99.90
17697;DHT22;8967;47.984;7.842;2022-12-18T02:06:26;-4.40;99.90
17697;DHT22;8967;47.984;7.842;2022-12-18T02:09:04;-4.30;99.90
17697;DHT22;8967;47.984;7.842;2022-12-18T02:11:41;-4.30;99.90
17697;DHT22;8967;47.984;7.842;2022-12-18T02:14:18;-4.20;99.90
17697;DHT22;8967;47.984;7.842;2022-12-18T02:16:52;-4.20;99.90
17697;DHT22;8967;47.984;7.842;2022-12-18T02:19:41;-4.20;99.90
17697;DHT22;8967;47.984;7.842;2022-12-18T02:22:23;-4.10;99.90
17697;DHT22;8967;47.984;7.842;2022-12-18T02:25:04;-4.10;99.90
17697;DHT22;8967;47.984;7.842;2022-12-18T02:27:35;-4.10;99.90
17697;DHT22;8967;47.984;7.842;2022-12-18T02:30:05;-4.20;99.90
17697;DHT22;8967;47.984;7.842;2022-12-18T02:32:36;-4.20;99.90
17697;DHT22;8967;47.984;7.842;2022-12-18T02:35:07;-4.20;99.90
17697;DHT22;8967;47.984;7.842;2022-12-18T02:37:39;-4.20;99.90
17697;DHT22;8967;47.984;7.842;2022-12-18T02:40:10;-4.20;99.90
17697;DHT22;8967;47.984;7.842;2022-12-18T02:42:40;-4.20;99.90
17697;DHT22;8967;47.984;7.842;2022-12-18T02:45:09;-4.20;99.90
17697;DHT22;8967;47.984;7.842;2022-12-18T02:47:39;-4.20;99.90
17697;DHT22;8967;47.984;7.842;2022-12-18T02:50:12;-4.30;99.90
17697;DHT22;8967;47.984;7.842;2022-12-18T02:52:48;-4.30;99.90
17697;DHT22;8967;47.984;7.842;2022-12-18T02:55:27;-4.30;99.90
17697;DHT22;8967;47.984;7.842;2022-12-18T02:58:05;-4.30;99.90
17697;DHT22;8967;47.984;7.842;2022-12-18T03:00:40;-4.30;99.90
17697;DHT22;8967;47.984;7.842;2022-12-18T03:03:13;-4.30;99.90
17697;DHT22;8967;47.984;7.842;2022-12-18T03:05:47;-4.30;99.90
17697;DHT22;8967;47.984;7.842;2022-12-18T03:08:20;-4.30;99.90
17697;DHT22;8967;47.984;7.842;2022-12-18T03:10:54;-4.30;99.90
17697;DHT22;8967;47.984;7.842;2022-12-18T03:13:28;-4.30;99.90
17697;DHT22;8967;47.984;7.842;2022-12-18T03:15:59;-4.30;99.90
17697;DHT22;8967;47.984;7.842;2022-12-18T03:18:30;-4.30;99.90
17697;DHT22;8967;47.984;7.842;2022-12-18T03:21:04;-4.40;99.90
17697;DHT22;8967;47.984;7.842;2022-12-18T03:23:36;-4.30;99.90
17697;DHT22;8967;47.984;7.842;2022-12-18T03:26:09;-4.30;99.90
17697;DHT22;8967;47.984;7.842;2022-12-18T03:28:45;-4.30;99.90
17697;DHT22;8967;47.984;7.842;2022-12-18T03:31:14;-4.40;99.90
17697;DHT22;8967;47.984;7.842;2022-12-18T03:33:47;-4.40;99.90
17697;DHT22;8967;47.984;7.842;2022-12-18T03:36:18;-4.50;99.90
17697;DHT22;8967;47.984;7.842;2022-12-18T03:38:45;-4.50;99.90
17697;DHT22;8967;47.984;7.842;2022-12-18T03:41:16;-4.60;99.90
17697;DHT22;8967;47.984;7.842;2022-12-18T03:44:08;-4.60;99.90
17697;DHT22;8967;47.984;7.842;2022-12-18T03:46:44;-4.60;99.90
17697;DHT22;8967;47.984;7.842;2022-12-18T03:49:21;-4.60;99.90
17697;DHT22;8967;47.984;7.842;2022-12-18T03:51:54;-4.60;99.90
17697;DHT22;8967;47.984;7.842;2022-12-18T03:54:25;-4.70;99.90
17697;DHT22;8967;47.984;7.842;2022-12-18T03:57:09;-4.70;99.90
17697;DHT22;8967;47.984;7.842;2022-12-18T03:59:38;-4.70;99.90
17697;DHT22;8967;47.984;7.842;2022-12-18T04:02:08;-4.70;99.90
17697;DHT22;8967;47.984;7.842;2022-12-18T04:04:37;-4.70;99.90
17697;DHT22;8967;47.984;7.842;2022-12-18T04:07:07;-4.70;99.90
17697;DHT22;8967;47.984;7.842;2022-12-18T04:09:38;-4.70;99.90
17697;DHT22;8967;47.984;7.842;2022-12-18T04:12:09;-4.60;99.90
17697;DHT22;8967;47.984;7.842;2022-12-18T04:14:37;-4.60;99.90
17697;DHT22;8967;47.984;7.842;2022-12-18T04:17:07;-4.60;99.90
17697;DHT22;8967;47.984;7.842;2022-12-18T04:19:34;-4.70;99.90
17697;DHT22;8967;47.984;7.842;2022-12-18T04:22:02;-4.60;99.90
17697;DHT22;8967;47.984;7.842;2022-12-18T04:24:35;-4.70;99.90
17697;DHT22;8967;47.984;7.842;2022-12-18T04:27:08;-4.70;99.90
17697;DHT22;8967;47.984;7.842;2022-12-18T04:29:43;-4.80;99.90
17697;DHT22;8967;47.984;7.842;2022-12-18T04:32:13;-4.80;99.90
17697;DHT22;8967;47.984;7.842;2022-12-18T04:34:43;-4.80;99.90
17697;DHT22;8967;47.984;7.842;2022-12-18T04:37:10;-4.90;99.90
17697;DHT22;8967;47.984;7.842;2022-12-18T04:39:38;-4.90;99.90
17697;DHT22;8967;47.984;7.842;2022-12-18T04:42:11;-5.00;99.90
17697;DHT22;8967;47.984;7.842;2022-12-18T04:44:38;-5.00;99.90
17697;DHT22;8967;47.984;7.842;2022-12-18T04:47:07;-5.10;99.90
17697;DHT22;8967;47.984;7.842;2022-12-18T04:49:34;-5.20;99.90
17697;DHT22;8967;47.984;7.842;2022-12-18T04:52:01;-5.20;99.90
17697;DHT22;8967;47.984;7.842;2022-12-18T04:54:28;-5.30;99.90
17697;DHT22;8967;47.984;7.842;2022-12-18T04:56:57;-5.30;99.90
17697;DHT22;8967;47.984;7.842;2022-12-18T04:59:24;-5.30;99.90
17697;DHT22;8967;47.984;7.842;2022-12-18T05:01:51;-5.40;99.90
17697;DHT22;8967;47.984;7.842;2022-12-18T05:04:19;-5.40;99.90
17697;DHT22;8967;47.984;7.842;2022-12-18T05:06:46;-5.40;99.90
17697;DHT22;8967;47.984;7.842;2022-12-18T05:09:13;-5.40;99.90
17697;DHT22;8967;47.984;7.842;2022-12-18T05:11:40;-5.50;99.90
17697;DHT22;8967;47.984;7.842;2022-12-18T05:14:07;-5.40;99.90
17697;DHT22;8967;47.984;7.842;2022-12-18T05:16:34;-5.40;99.90
17697;DHT22;8967;47.984;7.842;2022-12-18T05:19:00;-5.40;99.90
17697;DHT22;8967;47.984;7.842;2022-12-18T05:21:29;-5.40;99.90
17697;DHT22;8967;47.984;7.842;2022-12-18T05:23:56;-5.40;99.90
17697;DHT22;8967;47.984;7.842;2022-12-18T05:26:23;-5.50;99.90
17697;DHT22;8967;47.984;7.842;2022-12-18T05:28:50;-5.50;99.90
17697;DHT22;8967;47.984;7.842;2022-12-18T05:31:17;-5.50;99.90
17697;DHT22;8967;47.984;7.842;2022-12-18T05:33:44;-5.50;99.90
17697;DHT22;8967;47.984;7.842;2022-12-18T05:36:14;-5.50;99.90
17697;DHT22;8967;47.984;7.842;2022-12-18T05:38:42;-5.50;99.90
17697;DHT22;8967;47.984;7.842;2022-12-18T05:41:11;-5.50;99.90
17697;DHT22;8967;47.984;7.842;2022-12-18T05:43:39;-5.60;99.90
17697;DHT22;8967;47.984;7.842;2022-12-18T05:46:08;-5.50;99.90
17697;DHT22;8967;47.984;7.842;2022-12-18T05:48:35;-5.50;99.90
17697;DHT22;8967;47.984;7.842;2022-12-18T05:51:06;-5.50;99.90
17697;DHT22;8967;47.984;7.842;2022-12-18T05:53:34;-5.50;99.90
17697;DHT22;8967;47.984;7.842;2022-12-18T05:56:04;-5.60;99.90
17697;DHT22;8967;47.984;7.842;2022-12-18T05:58:32;-5.50;99.90
17697;DHT22;8967;47.984;7.842;2022-12-18T06:01:08;-5.50;99.90
17697;DHT22;8967;47.984;7.842;2022-12-18T06:03:35;-5.50;99.90
17697;DHT22;8967;47.984;7.842;2022-12-18T06:06:02;-5.60;99.90
17697;DHT22;8967;47.984;7.842;2022-12-18T06:08:29;-5.60;99.90
17697;DHT22;8967;47.984;7.842;2022-12-18T06:10:56;-5.60;99.90
17697;DHT22;8967;47.984;7.842;2022-12-18T06:13:25;-5.60;99.90
17697;DHT22;8967;47.984;7.842;2022-12-18T06:15:52;-5.60;99.90
17697;DHT22;8967;47.984;7.842;2022-12-18T06:18:18;-5.60;99.90
17697;DHT22;8967;47.984;7.842;2022-12-18T06:20:53;-5.60;99.90
17697;DHT22;8967;47.984;7.842;2022-12-18T06:23:20;-5.60;99.90
17697;DHT22;8967;47.984;7.842;2022-12-18T06:25:47;-5.60;99.90
17697;DHT22;8967;47.984;7.842;2022-12-18T06:28:14;-5.70;99.90
17697;DHT22;8967;47.984;7.842;2022-12-18T06:30:44;-5.60;99.90
17697;DHT22;8967;47.984;7.842;2022-12-18T06:33:11;-5.60;99.90
17697;DHT22;8967;47.984;7.842;2022-12-18T06:35:38;-5.60;99.90
17697;DHT22;8967;47.984;7.842;2022-12-18T06:38:05;-5.60;99.90
17697;DHT22;8967;47.984;7.842;2022-12-18T06:40:32;-5.60;99.90
17697;DHT22;8967;47.984;7.842;2022-12-18T06:42:59;-5.60;99.90
17697;DHT22;8967;47.984;7.842;2022-12-18T06:45:27;-5.60;99.90
17697;DHT22;8967;47.984;7.842;2022-12-18T06:47:55;-5.60;99.90
17697;DHT22;8967;47.984;7.842;2022-12-18T06:50:22;-5.60;99.90
17697;DHT22;8967;47.984;7.842;2022-12-18T06:52:49;-5.70;99.90
17697;DHT22;8967;47.984;7.842;2022-12-18T06:55:16;-5.70;99.90
17697;DHT22;8967;47.984;7.842;2022-12-18T06:57:43;-5.70;99.90
17697;DHT22;8967;47.984;7.842;2022-12-18T07:00:13;-5.80;99.90
17697;DHT22;8967;47.984;7.842;2022-12-18T07:02:40;-5.90;99.90
17697;DHT22;8967;47.984;7.842;2022-12-18T07:05:09;-5.90;99.90
17697;DHT22;8967;47.984;7.842;2022-12-18T07:07:36;-5.90;99.90
17697;DHT22;8967;47.984;7.842;2022-12-18T07:10:05;-6.00;99.90
17697;DHT22;8967;47.984;7.842;2022-12-18T07:12:33;-5.90;99.90
17697;DHT22;8967;47.984;7.842;2022-12-18T07:15:00;-5.90;99.90
17697;DHT22;8967;47.984;7.842;2022-12-18T07:17:27;-5.90;99.90
17697;DHT22;8967;47.984;7.842;2022-12-18T07:19:55;-5.90;99.90
17697;DHT22;8967;47.984;7.842;2022-12-18T07:22:26;-5.90;99.90
17697;DHT22;8967;47.984;7.842;2022-12-18T07:24:53;-5.90;99.90
17697;DHT22;8967;47.984;7.842;2022-12-18T07:27:21;-5.80;99.90
17697;DHT22;8967;47.984;7.842;2022-12-18T07:29:48;-5.80;99.90
17697;DHT22;8967;47.984;7.842;2022-12-18T07:32:15;-5.80;99.90
17697;DHT22;8967;47.984;7.842;2022-12-18T07:34:41;-5.80;99.90
17697;DHT22;8967;47.984;7.842;2022-12-18T07:37:08;-5.80;99.90
17697;DHT22;8967;47.984;7.842;2022-12-18T07:39:37;-5.90;99.90
17697;DHT22;8967;47.984;7.842;2022-12-18T07:42:06;-5.80;99.90
17697;DHT22;8967;47.984;7.842;2022-12-18T07:44:50;-5.80;99.90
17697;DHT22;8967;47.984;7.842;2022-12-18T07:47:20;-5.90;99.90
17697;DHT22;8967;47.984;7.842;2022-12-18T07:49:49;-5.90;99.90
17697;DHT22;8967;47.984;7.842;2022-12-18T07:52:18;-5.90;99.90
17697;DHT22;8967;47.984;7.842;2022-12-18T07:54:46;-6.00;99.90
17697;DHT22;8967;47.984;7.842;2022-12-18T07:57:14;-6.00;99.90
17697;DHT22;8967;47.984;7.842;2022-12-18T07:59:41;-6.00;99.90
17697;DHT22;8967;47.984;7.842;2022-12-18T08:02:08;-6.00;99.90
17697;DHT22;8967;47.984;7.842;2022-12-18T08:04:35;-6.00;99.90
17697;DHT22;8967;47.984;7.842;2022-12-18T08:07:03;-6.00;99.90
17697;DHT22;8967;47.984;7.842;2022-12-18T08:09:29;-6.00;99.90
17697;DHT22;8967;47.984;7.842;2022-12-18T08:11:58;-6.00;99.90
17697;DHT22;8967;47.984;7.842;2022-12-18T08:14:25;-6.10;99.90
17697;DHT22;8967;47.984;7.842;2022-12-18T08:16:52;-6.10;99.90
17697;DHT22;8967;47.984;7.842;2022-12-18T08:19:18;-6.10;99.90
17697;DHT22;8967;47.984;7.842;2022-12-18T08:21:47;-6.10;99.90
17697;DHT22;8967;47.984;7.842;2022-12-18T08:24:14;-6.10;99.90
17697;DHT22;8967;47.984;7.842;2022-12-18T08:26:41;-6.00;99.90
17697;DHT22;8967;47.984;7.842;2022-12-18T08:29:10;-6.00;99.90
17697;DHT22;8967;47.984;7.842;2022-12-18T08:31:37;-6.00;99.90
17697;DHT22;8967;47.984;7.842;2022-12-18T08:34:04;-6.00;99.90
17697;DHT22;8967;47.984;7.842;2022-12-18T08:36:31;-6.00;99.90
17697;DHT22;8967;47.984;7.842;2022-12-18T08:38:57;-5.90;99.90
17697;DHT22;8967;47.984;7.842;2022-12-18T08:41:25;-5.90;99.90
17697;DHT22;8967;47.984;7.842;2022-12-18T08:43:51;-5.90;99.90
17697;DHT22;8967;47.984;7.842;2022-12-18T08:46:39;-5.80;99.90
17697;DHT22;8967;47.984;7.842;2022-12-18T08:49:06;-5.80;99.90
17697;DHT22;8967;47.984;7.842;2022-12-18T08:51:34;-5.80;99.90
17697;DHT22;8967;47.984;7.842;2022-12-18T08:54:01;-5.70;99.90
17697;DHT22;8967;47.984;7.842;2022-12-18T08:56:28;-5.70;99.90
17697;DHT22;8967;47.984;7.842;2022-12-18T08:58:56;-5.70;99.90
17697;DHT22;8967;47.984;7.842;2022-12-18T09:01:23;-5.70;99.90
17697;DHT22;8967;47.984;7.842;2022-12-18T09:03:52;-5.60;99.90
17697;DHT22;8967;47.984;7.842;2022-12-18T09:06:21;-5.60;99.90
17697;DHT22;8967;47.984;7.842;2022-12-18T09:08:48;-5.50;99.90
17697;DHT22;8967;47.984;7.842;2022-12-18T09:11:19;-5.50;99.90
17697;DHT22;8967;47.984;7.842;2022-12-18T09:13:47;-5.40;99.90
17697;DHT22;8967;47.984;7.842;2022-12-18T09:16:14;-5.40;99.90
17697;DHT22;8967;47.984;7.842;2022-12-18T09:18:41;-5.30;99.90
17697;DHT22;8967;47.984;7.842;2022-12-18T09:21:11;-5.30;99.90
17697;DHT22;8967;47.984;7.842;2022-12-18T09:23:38;-5.20;99.90
17697;DHT22;8967;47.984;7.842;2022-12-18T09:26:05;-5.20;99.90
17697;DHT22;8967;47.984;7.842;2022-12-18T09:28:32;-5.20;99.90
17697;DHT22;8967;47.984;7.842;2022-12-18T09:31:04;-5.10;99.90
17697;DHT22;8967;47.984;7.842;2022-12-18T09:33:31;-5.10;99.90
17697;DHT22;8967;47.984;7.842;2022-12-18T09:36:01;-5.00;99.90
17697;DHT22;8967;47.984;7.842;2022-12-18T09:38:33;-5.00;99.90
17697;DHT22;8967;47.984;7.842;2022-12-18T09:41:04;-4.90;99.90
17697;DHT22;8967;47.984;7.842;2022-12-18T09:43:35;-4.90;99.90
17697;DHT22;8967;47.984;7.842;2022-12-18T09:46:07;-4.80;99.90
17697;DHT22;8967;47.984;7.842;2022-12-18T09:48:37;-4.80;99.90
17697;DHT22;8967;47.984;7.842;2022-12-18T09:51:11;-4.70;99.90
17697;DHT22;8967;47.984;7.842;2022-12-18T09:53:43;-4.70;99.90
17697;DHT22;8967;47.984;7.842;2022-12-18T09:56:16;-4.60;99.90
17697;DHT22;8967;47.984;7.842;2022-12-18T09:58:50;-4.60;99.90
17697;DHT22;8967;47.984;7.842;2022-12-18T10:01:22;-4.50;99.90
17697;DHT22;8967;47.984;7.842;2022-12-18T10:03:50;-4.50;99.90
17697;DHT22;8967;47.984;7.842;2022-12-18T10:06:21;-4.40;99.90
17697;DHT22;8967;47.984;7.842;2022-12-18T10:08:56;-4.40;99.90
17697;DHT22;8967;47.984;7.842;2022-12-18T10:11:37;-4.30;99.90
17697;DHT22;8967;47.984;7.842;2022-12-18T10:14:12;-4.20;99.90
17697;DHT22;8967;47.984;7.842;2022-12-18T10:16:51;-4.20;99.90
17697;DHT22;8967;47.984;7.842;2022-12-18T10:19:32;-4.20;99.90
17697;DHT22;8967;47.984;7.842;2022-12-18T10:22:10;-4.10;99.90
17697;DHT22;8967;47.984;7.842;2022-12-18T10:24:44;-4.00;99.90
17697;DHT22;8967;47.984;7.842;2022-12-18T10:27:16;-4.00;99.90
17697;DHT22;8967;47.984;7.842;2022-12-18T10:29:44;-3.90;99.90
17697;DHT22;8967;47.984;7.842;2022-12-18T10:32:15;-3.90;99.90
17697;DHT22;8967;47.984;7.842;2022-12-18T10:34:45;-3.90;99.90
17697;DHT22;8967;47.984;7.842;2022-12-18T10:37:16;-3.80;99.90
17697;DHT22;8967;47.984;7.842;2022-12-18T10:39:46;-3.80;99.90
17697;DHT22;8967;47.984;7.842;2022-12-18T10:42:17;-3.70;99.90
17697;DHT22;8967;47.984;7.842;2022-12-18T10:44:44;-3.70;99.90
17697;DHT22;8967;47.984;7.842;2022-12-18T10:47:17;-3.60;99.90
17697;DHT22;8967;47.984;7.842;2022-12-18T10:49:49;-3.60;99.90
17697;DHT22;8967;47.984;7.842;2022-12-18T10:52:21;-3.50;99.90
17697;DHT22;8967;47.984;7.842;2022-12-18T10:54:52;-3.50;99.90
17697;DHT22;8967;47.984;7.842;2022-12-18T10:57:32;-3.40;99.90
17697;DHT22;8967;47.984;7.842;2022-12-18T11:00:18;-3.40;99.90
17697;DHT22;8967;47.984;7.842;2022-12-18T11:02:47;-3.30;99.90
17697;DHT22;8967;47.984;7.842;2022-12-18T11:05:25;-3.20;99.90
17697;DHT22;8967;47.984;7.842;2022-12-18T11:07:52;-3.20;99.90
17697;DHT22;8967;47.984;7.842;2022-12-18T11:10:24;-3.10;99.90
17697;DHT22;8967;47.984;7.842;2022-12-18T11:12:52;-3.10;99.90
17697;DHT22;8967;47.984;7.842;2022-12-18T11:15:21;-3.00;99.90
17697;DHT22;8967;47.984;7.842;2022-12-18T11:17:50;-3.00;99.90
17697;DHT22;8967;47.984;7.842;2022-12-18T11:20:27;-2.90;99.90
17697;DHT22;8967;47.984;7.842;2022-12-18T11:22:58;-2.80;99.90
17697;DHT22;8967;47.984;7.842;2022-12-18T11:25:27;-2.80;99.90
17697;DHT22;8967;47.984;7.842;2022-12-18T11:27:56;-2.70;99.90
17697;DHT22;8967;47.984;7.842;2022-12-18T11:30:26;-2.60;99.90
17697;DHT22;8967;47.984;7.842;2022-12-18T11:32:56;-2.60;99.90
17697;DHT22;8967;47.984;7.842;2022-12-18T11:35:34;-2.50;99.90
17697;DHT22;8967;47.984;7.842;2022-12-18T11:38:06;-2.50;99.90
17697;DHT22;8967;47.984;7.842;2022-12-18T11:40:44;-2.40;99.90
17697;DHT22;8967;47.984;7.842;2022-12-18T11:43:17;-2.40;99.90
17697;DHT22;8967;47.984;7.842;2022-12-18T11:45:49;-2.40;99.90
17697;DHT22;8967;47.984;7.842;2022-12-18T11:48:23;-2.30;99.90
17697;DHT22;8967;47.984;7.842;2022-12-18T11:50:53;-2.30;99.90
17697;DHT22;8967;47.984;7.842;2022-12-18T11:53:22;-2.30;99.90
17697;DHT22;8967;47.984;7.842;2022-12-18T11:56:00;-2.20;99.90
17697;DHT22;8967;47.984;7.842;2022-12-18T11:58:40;-2.20;99.90
17697;DHT22;8967;47.984;7.842;2022-12-18T12:01:16;-2.20;99.90
17697;DHT22;8967;47.984;7.842;2022-12-18T12:04:19;-2.10;99.90
17697;DHT22;8967;47.984;7.842;2022-12-18T12:06:56;-2.10;99.90
17697;DHT22;8967;47.984;7.842;2022-12-18T12:09:30;-2.10;99.90
17697;DHT22;8967;47.984;7.842;2022-12-18T12:12:15;-2.00;99.90
17697;DHT22;8967;47.984;7.842;2022-12-18T12:14:51;-2.00;99.90
17697;DHT22;8967;47.984;7.842;2022-12-18T12:17:26;-2.00;99.90
17697;DHT22;8967;47.984;7.842;2022-12-18T12:20:00;-2.00;99.90
17697;DHT22;8967;47.984;7.842;2022-12-18T12:22:37;-1.90;99.90
17697;DHT22;8967;47.984;7.842;2022-12-18T12:25:21;-1.90;99.90
17697;DHT22;8967;47.984;7.842;2022-12-18T12:28:05;-1.90;99.90
17697;DHT22;8967;47.984;7.842;2022-12-18T12:30:42;-1.90;99.90
17697;DHT22;8967;47.984;7.842;2022-12-18T12:33:21;-1.90;99.90
17697;DHT22;8967;47.984;7.842;2022-12-18T12:35:59;-1.80;99.90
17697;DHT22;8967;47.984;7.842;2022-12-18T12:38:35;-1.80;99.90
17697;DHT22;8967;47.984;7.842;2022-12-18T12:41:05;-1.80;99.90
17697;DHT22;8967;47.984;7.842;2022-12-18T12:43:56;-1.70;99.90
17697;DHT22;8967;47.984;7.842;2022-12-18T12:46:24;-1.70;99.90
17697;DHT22;8967;47.984;7.842;2022-12-18T12:48:53;-1.70;99.90
17697;DHT22;8967;47.984;7.842;2022-12-18T12:51:25;-1.70;99.90
17697;DHT22;8967;47.984;7.842;2022-12-18T12:53:54;-1.70;99.90
17697;DHT22;8967;47.984;7.842;2022-12-18T12:56:22;-1.60;99.90
17697;DHT22;8967;47.984;7.842;2022-12-18T12:58:59;-1.60;99.90
17697;DHT22;8967;47.984;7.842;2022-12-18T13:01:34;-1.60;99.90
17697;DHT22;8967;47.984;7.842;2022-12-18T13:04:16;-1.50;99.90
17697;DHT22;8967;47.984;7.842;2022-12-18T13:06:50;-1.50;99.90
17697;DHT22;8967;47.984;7.842;2022-12-18T13:09:20;-1.50;99.90
17697;DHT22;8967;47.984;7.842;2022-12-18T13:11:47;-1.50;99.90
17697;DHT22;8967;47.984;7.842;2022-12-18T13:14:35;-1.50;99.90
17697;DHT22;8967;47.984;7.842;2022-12-18T13:17:24;-1.50;99.90
17697;DHT22;8967;47.984;7.842;2022-12-18T13:20:05;-1.50;99.90
17697;DHT22;8967;47.984;7.842;2022-12-18T13:22:35;-1.40;99.90
17697;DHT22;8967;47.984;7.842;2022-12-18T13:25:03;-1.40;99.90
17697;DHT22;8967;47.984;7.842;2022-12-18T13:27:54;-1.40;99.90
17697;DHT22;8967;47.984;7.842;2022-12-18T13:30:47;-1.40;99.90
17697;DHT22;8967;47.984;7.842;2022-12-18T13:33:40;-1.30;99.90
17697;DHT22;8967;47.984;7.842;2022-12-18T13:36:27;-1.30;99.90
17697;DHT22;8967;47.984;7.842;2022-12-18T13:39:15;-1.30;99.90
17697;DHT22;8967;47.984;7.842;2022-12-18T13:41:48;-1.30;99.90
17697;DHT22;8967;47.984;7.842;2022-12-18T13:44:25;-1.30;99.90
17697;DHT22;8967;47.984;7.842;2022-12-18T13:46:56;-1.30;99.90
17697;DHT22;8967;47.984;7.842;2022-12-18T13:49:25;-1.20;99.90
17697;DHT22;8967;47.984;7.842;2022-12-18T13:51:55;-1.20;99.90
17697;DHT22;8967;47.984;7.842;2022-12-18T13:54:28;-1.20;99.90
17697;DHT22;8967;47.984;7.842;2022-12-18T13:56:56;-1.20;99.90
17697;DHT22;8967;47.984;7.842;2022-12-18T13:59:25;-1.20;99.90
17697;DHT22;8967;47.984;7.842;2022-12-18T14:01:56;-1.20;99.90
17697;DHT22;8967;47.984;7.842;2022-12-18T14:04:26;-1.20;99.90
17697;DHT22;8967;47.984;7.842;2022-12-18T14:06:57;-1.20;99.90
17697;DHT22;8967;47.984;7.842;2022-12-18T14:09:27;-1.20;99.90
17697;DHT22;8967;47.984;7.842;2022-12-18T14:11:56;-1.20;99.90
17697;DHT22;8967;47.984;7.842;2022-12-18T14:14:41;-1.20;99.90
17697;DHT22;8967;47.984;7.842;2022-12-18T14:17:10;-1.20;99.90
17697;DHT22;8967;47.984;7.842;2022-12-18T14:19:45;-1.20;99.90
17697;DHT22;8967;47.984;7.842;2022-12-18T14:22:18;-1.20;99.90
17697;DHT22;8967;47.984;7.842;2022-12-18T14:24:46;-1.10;99.90
17697;DHT22;8967;47.984;7.842;2022-12-18T14:27:22;-1.10;99.90
17697;DHT22;8967;47.984;7.842;2022-12-18T14:29:51;-1.10;99.90
17697;DHT22;8967;47.984;7.842;2022-12-18T14:32:20;-1.10;99.90
17697;DHT22;8967;47.984;7.842;2022-12-18T14:34:49;-1.10;99.90
17697;DHT22;8967;47.984;7.842;2022-12-18T14:37:20;-1.10;99.90
17697;DHT22;8967;47.984;7.842;2022-12-18T14:39:55;-1.10;99.90
17697;DHT22;8967;47.984;7.842;2022-12-18T14:42:23;-1.10;99.90
17697;DHT22;8967;47.984;7.842;2022-12-18T14:47:55;-1.10;99.90
17697;DHT22;8967;47.984;7.842;2022-12-18T14:50:22;-1.10;99.90
17697;DHT22;8967;47.984;7.842;2022-12-18T14:52:50;-1.10;99.90
17697;DHT22;8967;47.984;7.842;2022-12-18T14:55:17;-1.10;99.90
17697;DHT22;8967;47.984;7.842;2022-12-18T14:57:45;-1.10;99.90
17697;DHT22;8967;47.984;7.842;2022-12-18T15:00:17;-1.10;99.90
17697;DHT22;8967;47.984;7.842;2022-12-18T15:02:45;-1.10;99.90
17697;DHT22;8967;47.984;7.842;2022-12-18T15:05:20;-1.10;99.90
17697;DHT22;8967;47.984;7.842;2022-12-18T15:07:49;-1.10;99.90
17697;DHT22;8967;47.984;7.842;2022-12-18T15:10:18;-1.10;99.90
17697;DHT22;8967;47.984;7.842;2022-12-18T15:12:47;-1.10;99.90
17697;DHT22;8967;47.984;7.842;2022-12-18T15:15:46;-1.00;99.90
17697;DHT22;8967;47.984;7.842;2022-12-18T15:18:15;-1.00;99.90
17697;DHT22;8967;47.984;7.842;2022-12-18T15:20:46;-1.00;99.90
17697;DHT22;8967;47.984;7.842;2022-12-18T15:23:19;-1.00;99.90
17697;DHT22;8967;47.984;7.842;2022-12-18T15:25:48;-1.00;99.90
17697;DHT22;8967;47.984;7.842;2022-12-18T15:28:19;-1.00;99.90
17697;DHT22;8967;47.984;7.842;2022-12-18T15:30:59;-1.00;99.90
17697;DHT22;8967;47.984;7.842;2022-12-18T15:33:30;-1.00;99.90
17697;DHT22;8967;47.984;7.842;2022-12-18T15:36:01;-1.00;99.90
17697;DHT22;8967;47.984;7.842;2022-12-18T15:38:28;-1.00;99.90
17697;DHT22;8967;47.984;7.842;2022-12-18T15:40:58;-1.00;99.90
17697;DHT22;8967;47.984;7.842;2022-12-18T15:43:25;-1.00;99.90
17697;DHT22;8967;47.984;7.842;2022-12-18T15:46:03;-1.00;99.90
17697;DHT22;8967;47.984;7.842;2022-12-18T15:48:32;-1.00;99.90
17697;DHT22;8967;47.984;7.842;2022-12-18T15:51:01;-1.00;99.90
17697;DHT22;8967;47.984;7.842;2022-12-18T15:53:32;-1.00;99.90
17697;DHT22;8967;47.984;7.842;2022-12-18T15:56:00;-1.00;99.90
17697;DHT22;8967;47.984;7.842;2022-12-18T15:58:44;-1.00;99.90
17697;DHT22;8967;47.984;7.842;2022-12-18T16:01:11;-0.90;99.90
17697;DHT22;8967;47.984;7.842;2022-12-18T16:03:38;-0.90;99.90
17697;DHT22;8967;47.984;7.842;2022-12-18T16:06:09;-0.90;99.90
17697;DHT22;8967;47.984;7.842;2022-12-18T16:08:38;-0.90;99.90
17697;DHT22;8967;47.984;7.842;2022-12-18T16:11:05;-0.90;99.90
17697;DHT22;8967;47.984;7.842;2022-12-18T16:13:35;-0.90;99.90